sensor_id;sensor_type;location;lat;lon;timestamp;P1;durP1;ratioP1;P2;durP2;ratioP2
19754;SDS011;10036;47.812;9.274;2022-10-31T00:01:22;17.27;;;11.95;;
19754;SDS011;10036;47.812;9.274;2022-10-31T00:03:51;16.98;;;12.20;;
19754;SDS011;10036;47.812;9.274;2022-10-31T00:06:18;17.77;;;11.32;;
19754;SDS011;10036;47.812;9.274;2022-10-31T00:08:45;19.15;;;11.65;;
19754;SDS011;10036;47.812;9.274;2022-10-31T00:11:13;15.63;;;11.07;;
19754;SDS011;10036;47.812;9.274;2022-10-31T00:13:40;15.77;;;10.98;;
19754;SDS011;10036;47.812;9.274;2022-10-31T00:16:12;16.58;;;11.07;;
19754;SDS011;10036;47.812;9.274;2022-10-31T00:18:40;22.27;;;11.23;;
19754;SDS011;10036;47.812;9.274;2022-10-31T00:21:07;21.20;;;12.15;;
19754;SDS011;10036;47.812;9.274;2022-10-31T00:23:34;20.05;;;11.52;;
19754;SDS011;10036;47.812;9.274;2022-10-31T00:26:01;20.27;;;11.95;;
19754;SDS011;10036;47.812;9.274;2022-10-31T00:28:31;20.38;;;11.90;;
19754;SDS011;10036;47.812;9.274;2022-10-31T00:30:58;22.77;;;11.82;;
19754;SDS011;10036;47.812;9.274;2022-10-31T00:33:26;24.08;;;11.55;;
19754;SDS011;10036;47.812;9.274;2022-10-31T00:35:53;24.08;;;11.77;;
19754;SDS011;10036;47.812;9.274;2022-10-31T00:38:20;24.17;;;13.25;;
19754;SDS011;10036;47.812;9.274;2022-10-31T00:40:47;20.92;;;13.40;;
19754;SDS011;10036;47.812;9.274;2022-10-31T00:43:14;25.17;;;12.77;;
19754;SDS011;10036;47.812;9.274;2022-10-31T00:45:42;21.65;;;13.35;;
19754;SDS011;10036;47.812;9.274;2022-10-31T00:48:09;25.13;;;12.55;;
19754;SDS011;10036;47.812;9.274;2022-10-31T00:50:37;23.83;;;14.05;;
19754;SDS011;10036;47.812;9.274;2022-10-31T00:53:04;21.33;;;13.48;;
19754;SDS011;10036;47.812;9.274;2022-10-31T00:55:32;27.83;;;13.45;;
19754;SDS011;10036;47.812;9.274;2022-10-31T00:57:59;28.63;;;13.77;;
19754;SDS011;10036;47.812;9.274;2022-10-31T01:00:26;27.33;;;13.50;;
19754;SDS011;10036;47.812;9.274;2022-10-31T01:02:54;31.58;;;15.23;;
19754;SDS011;10036;47.812;9.274;2022-10-31T01:05:21;31.63;;;15.10;;
19754;SDS011;10036;47.812;9.274;2022-10-31T01:07:48;27.20;;;13.45;;
19754;SDS011;10036;47.812;9.274;2022-10-31T01:10:15;30.42;;;15.63;;
19754;SDS011;10036;47.812;9.274;2022-10-31T01:12:43;29.50;;;14.68;;
19754;SDS011;10036;47.812;9.274;2022-10-31T01:15:12;28.73;;;14.85;;
19754;SDS011;10036;47.812;9.274;2022-10-31T01:17:41;27.65;;;15.90;;
19754;SDS011;10036;47.812;9.274;2022-10-31T01:20:10;31.65;;;15.40;;
19754;SDS011;10036;47.812;9.274;2022-10-31T01:22:38;25.48;;;14.57;;
19754;SDS011;10036;47.812;9.274;2022-10-31T01:25:05;29.10;;;14.93;;
19754;SDS011;10036;47.812;9.274;2022-10-31T01:27:34;28.55;;;15.13;;
19754;SDS011;10036;47.812;9.274;2022-10-31T01:30:01;32.22;;;15.55;;
19754;SDS011;10036;47.812;9.274;2022-10-31T01:32:28;26.02;;;14.18;;
19754;SDS011;10036;47.812;9.274;2022-10-31T01:34:55;29.63;;;14.32;;
19754;SDS011;10036;47.812;9.274;2022-10-31T01:37:23;26.63;;;14.43;;
19754;SDS011;10036;47.812;9.274;2022-10-31T01:39:50;26.45;;;14.75;;
19754;SDS011;10036;47.812;9.274;2022-10-31T01:42:18;28.60;;;14.30;;
19754;SDS011;10036;47.812;9.274;2022-10-31T01:44:53;26.48;;;13.13;;
19754;SDS011;10036;47.812;9.274;2022-10-31T01:47:27;21.80;;;12.60;;
19754;SDS011;10036;47.812;9.274;2022-10-31T01:50:04;20.63;;;12.05;;
19754;SDS011;10036;47.812;9.274;2022-10-31T01:52:39;15.45;;;11.85;;
19754;SDS011;10036;47.812;9.274;2022-10-31T01:55:09;16.20;;;10.90;;
19754;SDS011;10036;47.812;9.274;2022-10-31T01:57:40;17.45;;;11.55;;
19754;SDS011;10036;47.812;9.274;2022-10-31T02:00:10;17.80;;;12.50;;
19754;SDS011;10036;47.812;9.274;2022-10-31T02:02:37;21.52;;;11.65;;
19754;SDS011;10036;47.812;9.274;2022-10-31T02:05:05;24.73;;;12.20;;
19754;SDS011;10036;47.812;9.274;2022-10-31T02:07:36;16.75;;;12.65;;
19754;SDS011;10036;47.812;9.274;2022-10-31T02:10:08;15.68;;;11.90;;
19754;SDS011;10036;47.812;9.274;2022-10-31T02:12:36;18.95;;;11.43;;
19754;SDS011;10036;47.812;9.274;2022-10-31T02:15:04;14.80;;;11.80;;
19754;SDS011;10036;47.812;9.274;2022-10-31T02:17:31;13.65;;;11.40;;
19754;SDS011;10036;47.812;9.274;2022-10-31T02:20:01;12.65;;;10.80;;
19754;SDS011;10036;47.812;9.274;2022-10-31T02:22:39;13.18;;;10.15;;
19754;SDS011;10036;47.812;9.274;2022-10-31T02:25:22;10.80;;;9.60;;
19754;SDS011;10036;47.812;9.274;2022-10-31T02:28:13;10.25;;;8.80;;
19754;SDS011;10036;47.812;9.274;2022-10-31T02:31:04;10.85;;;8.55;;
19754;SDS011;10036;47.812;9.274;2022-10-31T02:33:48;13.80;;;8.82;;
19754;SDS011;10036;47.812;9.274;2022-10-31T02:36:20;25.67;;;9.60;;
19754;SDS011;10036;47.812;9.274;2022-10-31T02:38:53;20.92;;;9.73;;
19754;SDS011;10036;47.812;9.274;2022-10-31T02:41:30;12.73;;;9.60;;
19754;SDS011;10036;47.812;9.274;2022-10-31T02:44:05;12.15;;;9.50;;
19754;SDS011;10036;47.812;9.274;2022-10-31T02:46:39;21.15;;;10.52;;
19754;SDS011;10036;47.812;9.274;2022-10-31T02:49:15;13.98;;;10.15;;
19754;SDS011;10036;47.812;9.274;2022-10-31T02:51:48;19.45;;;9.98;;
19754;SDS011;10036;47.812;9.274;2022-10-31T02:54:17;12.20;;;10.43;;
19754;SDS011;10036;47.812;9.274;2022-10-31T02:56:46;17.23;;;11.07;;
19754;SDS011;10036;47.812;9.274;2022-10-31T02:59:15;14.38;;;10.77;;
19754;SDS011;10036;47.812;9.274;2022-10-31T03:01:46;13.02;;;10.73;;
19754;SDS011;10036;47.812;9.274;2022-10-31T03:07:32;25.15;;;10.65;;
19754;SDS011;10036;47.812;9.274;2022-10-31T03:10:04;39.42;;;11.45;;
19754;SDS011;10036;47.812;9.274;2022-10-31T03:12:43;31.60;;;11.43;;
19754;SDS011;10036;47.812;9.274;2022-10-31T03:15:17;17.60;;;11.40;;
19754;SDS011;10036;47.812;9.274;2022-10-31T03:17:52;18.55;;;11.82;;
19754;SDS011;10036;47.812;9.274;2022-10-31T03:20:26;14.85;;;10.43;;
19754;SDS011;10036;47.812;9.274;2022-10-31T03:23:00;15.45;;;10.80;;
19754;SDS011;10036;47.812;9.274;2022-10-31T03:25:28;14.98;;;10.88;;
19754;SDS011;10036;47.812;9.274;2022-10-31T03:27:57;17.88;;;11.55;;
19754;SDS011;10036;47.812;9.274;2022-10-31T03:30:27;29.20;;;12.57;;
19754;SDS011;10036;47.812;9.274;2022-10-31T03:32:57;23.75;;;14.05;;
19754;SDS011;10036;47.812;9.274;2022-10-31T03:35:26;23.73;;;13.57;;
19754;SDS011;10036;47.812;9.274;2022-10-31T03:37:55;34.53;;;12.88;;
19754;SDS011;10036;47.812;9.274;2022-10-31T03:40:22;25.52;;;13.07;;
19754;SDS011;10036;47.812;9.274;2022-10-31T03:42:53;32.47;;;12.88;;
19754;SDS011;10036;47.812;9.274;2022-10-31T03:45:24;17.38;;;12.65;;
19754;SDS011;10036;47.812;9.274;2022-10-31T03:47:53;29.65;;;11.30;;
19754;SDS011;10036;47.812;9.274;2022-10-31T03:50:23;32.50;;;12.63;;
19754;SDS011;10036;47.812;9.274;2022-10-31T03:52:54;22.17;;;12.73;;
19754;SDS011;10036;47.812;9.274;2022-10-31T03:55:27;20.90;;;12.82;;
19754;SDS011;10036;47.812;9.274;2022-10-31T03:57:57;23.25;;;12.82;;
19754;SDS011;10036;47.812;9.274;2022-10-31T04:00:29;39.35;;;12.10;;
19754;SDS011;10036;47.812;9.274;2022-10-31T04:02:58;18.55;;;12.13;;
19754;SDS011;10036;47.812;9.274;2022-10-31T04:05:32;17.20;;;13.05;;
19754;SDS011;10036;47.812;9.274;2022-10-31T04:08:01;18.02;;;12.80;;
19754;SDS011;10036;47.812;9.274;2022-10-31T04:10:30;19.52;;;12.93;;
19754;SDS011;10036;47.812;9.274;2022-10-31T04:13:00;17.63;;;12.27;;
19754;SDS011;10036;47.812;9.274;2022-10-31T04:15:31;20.02;;;13.68;;
19754;SDS011;10036;47.812;9.274;2022-10-31T04:17:59;18.95;;;12.95;;
19754;SDS011;10036;47.812;9.274;2022-10-31T04:20:31;79.35;;;13.88;;
19754;SDS011;10036;47.812;9.274;2022-10-31T04:22:59;22.10;;;13.93;;
19754;SDS011;10036;47.812;9.274;2022-10-31T04:25:27;31.17;;;13.95;;
19754;SDS011;10036;47.812;9.274;2022-10-31T04:27:53;32.70;;;13.63;;
19754;SDS011;10036;47.812;9.274;2022-10-31T04:30:20;36.72;;;14.02;;
19754;SDS011;10036;47.812;9.274;2022-10-31T04:32:48;30.92;;;14.27;;
19754;SDS011;10036;47.812;9.274;2022-10-31T04:35:14;20.98;;;13.30;;
19754;SDS011;10036;47.812;9.274;2022-10-31T04:37:43;20.52;;;14.07;;
19754;SDS011;10036;47.812;9.274;2022-10-31T04:40:10;37.75;;;13.95;;
19754;SDS011;10036;47.812;9.274;2022-10-31T04:42:37;33.38;;;14.85;;
19754;SDS011;10036;47.812;9.274;2022-10-31T04:45:04;39.63;;;14.45;;
19754;SDS011;10036;47.812;9.274;2022-10-31T04:47:32;39.10;;;15.15;;
19754;SDS011;10036;47.812;9.274;2022-10-31T04:49:59;91.43;;;23.95;;
19754;SDS011;10036;47.812;9.274;2022-10-31T04:52:26;43.75;;;22.13;;
19754;SDS011;10036;47.812;9.274;2022-10-31T04:54:54;28.65;;;19.90;;
19754;SDS011;10036;47.812;9.274;2022-10-31T04:57:21;49.50;;;18.63;;
19754;SDS011;10036;47.812;9.274;2022-10-31T04:59:48;34.63;;;18.83;;
19754;SDS011;10036;47.812;9.274;2022-10-31T05:02:15;25.52;;;17.67;;
19754;SDS011;10036;47.812;9.274;2022-10-31T05:04:42;33.40;;;17.88;;
19754;SDS011;10036;47.812;9.274;2022-10-31T05:07:09;33.83;;;17.10;;
19754;SDS011;10036;47.812;9.274;2022-10-31T05:09:35;44.67;;;18.05;;
19754;SDS011;10036;47.812;9.274;2022-10-31T05:12:04;27.67;;;18.30;;
19754;SDS011;10036;47.812;9.274;2022-10-31T05:14:31;29.30;;;19.10;;
19754;SDS011;10036;47.812;9.274;2022-10-31T05:16:57;35.05;;;19.38;;
19754;SDS011;10036;47.812;9.274;2022-10-31T05:19:24;37.38;;;21.83;;
19754;SDS011;10036;47.812;9.274;2022-10-31T05:21:51;43.13;;;20.85;;
19754;SDS011;10036;47.812;9.274;2022-10-31T05:24:18;29.42;;;19.42;;
19754;SDS011;10036;47.812;9.274;2022-10-31T05:26:46;32.60;;;20.73;;
19754;SDS011;10036;47.812;9.274;2022-10-31T05:29:15;29.63;;;21.20;;
19754;SDS011;10036;47.812;9.274;2022-10-31T05:31:42;26.15;;;20.05;;
19754;SDS011;10036;47.812;9.274;2022-10-31T05:34:08;27.38;;;21.35;;
19754;SDS011;10036;47.812;9.274;2022-10-31T05:36:35;30.27;;;20.33;;
19754;SDS011;10036;47.812;9.274;2022-10-31T05:39:02;29.08;;;19.40;;
19754;SDS011;10036;47.812;9.274;2022-10-31T05:41:29;33.63;;;20.05;;
19754;SDS011;10036;47.812;9.274;2022-10-31T05:43:56;40.30;;;19.23;;
19754;SDS011;10036;47.812;9.274;2022-10-31T05:46:24;27.38;;;19.00;;
19754;SDS011;10036;47.812;9.274;2022-10-31T05:48:51;26.00;;;18.85;;
19754;SDS011;10036;47.812;9.274;2022-10-31T05:51:18;26.65;;;18.65;;
19754;SDS011;10036;47.812;9.274;2022-10-31T05:53:45;23.40;;;19.13;;
19754;SDS011;10036;47.812;9.274;2022-10-31T05:56:13;24.23;;;19.67;;
19754;SDS011;10036;47.812;9.274;2022-10-31T05:58:39;26.00;;;18.50;;
19754;SDS011;10036;47.812;9.274;2022-10-31T06:01:06;26.02;;;19.30;;
19754;SDS011;10036;47.812;9.274;2022-10-31T06:03:34;27.73;;;19.48;;
19754;SDS011;10036;47.812;9.274;2022-10-31T06:06:01;22.65;;;18.02;;
19754;SDS011;10036;47.812;9.274;2022-10-31T06:08:28;23.27;;;18.38;;
19754;SDS011;10036;47.812;9.274;2022-10-31T06:10:55;26.15;;;18.00;;
19754;SDS011;10036;47.812;9.274;2022-10-31T06:13:22;28.00;;;19.02;;
19754;SDS011;10036;47.812;9.274;2022-10-31T06:15:49;23.10;;;17.30;;
19754;SDS011;10036;47.812;9.274;2022-10-31T06:18:16;25.58;;;18.80;;
19754;SDS011;10036;47.812;9.274;2022-10-31T06:20:44;23.75;;;18.90;;
19754;SDS011;10036;47.812;9.274;2022-10-31T06:23:11;25.40;;;18.65;;
19754;SDS011;10036;47.812;9.274;2022-10-31T06:25:37;24.27;;;19.05;;
19754;SDS011;10036;47.812;9.274;2022-10-31T06:28:04;28.40;;;18.70;;
19754;SDS011;10036;47.812;9.274;2022-10-31T06:30:31;21.35;;;16.85;;
19754;SDS011;10036;47.812;9.274;2022-10-31T06:33:02;24.00;;;18.05;;
19754;SDS011;10036;47.812;9.274;2022-10-31T06:35:29;20.63;;;17.02;;
19754;SDS011;10036;47.812;9.274;2022-10-31T06:37:57;20.73;;;16.55;;
19754;SDS011;10036;47.812;9.274;2022-10-31T06:40:24;28.50;;;16.67;;
19754;SDS011;10036;47.812;9.274;2022-10-31T06:42:58;20.75;;;16.75;;
19754;SDS011;10036;47.812;9.274;2022-10-31T06:45:25;19.35;;;16.33;;
19754;SDS011;10036;47.812;9.274;2022-10-31T06:47:53;20.05;;;16.35;;
19754;SDS011;10036;47.812;9.274;2022-10-31T06:50:20;20.75;;;16.92;;
19754;SDS011;10036;47.812;9.274;2022-10-31T06:52:51;20.67;;;17.63;;
19754;SDS011;10036;47.812;9.274;2022-10-31T06:55:19;19.83;;;16.63;;
19754;SDS011;10036;47.812;9.274;2022-10-31T06:57:50;22.20;;;17.38;;
19754;SDS011;10036;47.812;9.274;2022-10-31T07:00:17;24.77;;;17.23;;
19754;SDS011;10036;47.812;9.274;2022-10-31T07:02:52;50.95;;;17.05;;
19754;SDS011;10036;47.812;9.274;2022-10-31T07:05:19;23.48;;;16.55;;
19754;SDS011;10036;47.812;9.274;2022-10-31T07:07:47;23.75;;;16.38;;
19754;SDS011;10036;47.812;9.274;2022-10-31T07:10:13;27.13;;;17.15;;
19754;SDS011;10036;47.812;9.274;2022-10-31T07:12:42;27.05;;;17.08;;
19754;SDS011;10036;47.812;9.274;2022-10-31T07:15:09;21.65;;;16.42;;
19754;SDS011;10036;47.812;9.274;2022-10-31T07:17:36;20.10;;;14.93;;
19754;SDS011;10036;47.812;9.274;2022-10-31T07:20:03;19.17;;;15.13;;
19754;SDS011;10036;47.812;9.274;2022-10-31T07:22:33;25.95;;;16.23;;
19754;SDS011;10036;47.812;9.274;2022-10-31T07:25:01;21.92;;;17.08;;
19754;SDS011;10036;47.812;9.274;2022-10-31T07:27:28;18.48;;;16.05;;
19754;SDS011;10036;47.812;9.274;2022-10-31T07:29:56;18.08;;;15.45;;
19754;SDS011;10036;47.812;9.274;2022-10-31T07:32:23;20.25;;;16.50;;
19754;SDS011;10036;47.812;9.274;2022-10-31T07:34:50;18.75;;;16.42;;
19754;SDS011;10036;47.812;9.274;2022-10-31T07:37:16;33.35;;;17.13;;
19754;SDS011;10036;47.812;9.274;2022-10-31T07:39:43;32.85;;;17.63;;
19754;SDS011;10036;47.812;9.274;2022-10-31T07:42:10;20.20;;;16.92;;
19754;SDS011;10036;47.812;9.274;2022-10-31T07:44:37;20.50;;;17.33;;
19754;SDS011;10036;47.812;9.274;2022-10-31T07:47:05;18.55;;;15.93;;
19754;SDS011;10036;47.812;9.274;2022-10-31T07:49:32;23.35;;;16.85;;
19754;SDS011;10036;47.812;9.274;2022-10-31T07:51:59;24.23;;;16.67;;
19754;SDS011;10036;47.812;9.274;2022-10-31T07:54:26;20.98;;;16.85;;
19754;SDS011;10036;47.812;9.274;2022-10-31T07:56:53;19.33;;;16.10;;
19754;SDS011;10036;47.812;9.274;2022-10-31T07:59:19;19.95;;;16.85;;
19754;SDS011;10036;47.812;9.274;2022-10-31T08:01:46;18.50;;;15.65;;
19754;SDS011;10036;47.812;9.274;2022-10-31T08:04:14;28.67;;;16.73;;
19754;SDS011;10036;47.812;9.274;2022-10-31T08:06:41;20.25;;;16.15;;
19754;SDS011;10036;47.812;9.274;2022-10-31T08:09:08;26.20;;;15.45;;
19754;SDS011;10036;47.812;9.274;2022-10-31T08:11:35;24.98;;;15.30;;
19754;SDS011;10036;47.812;9.274;2022-10-31T08:14:02;21.38;;;15.85;;
19754;SDS011;10036;47.812;9.274;2022-10-31T08:16:29;20.35;;;15.27;;
19754;SDS011;10036;47.812;9.274;2022-10-31T08:18:55;18.40;;;15.90;;
19754;SDS011;10036;47.812;9.274;2022-10-31T08:21:24;20.70;;;15.63;;
19754;SDS011;10036;47.812;9.274;2022-10-31T08:23:51;23.15;;;17.33;;
19754;SDS011;10036;47.812;9.274;2022-10-31T08:26:17;21.05;;;16.30;;
19754;SDS011;10036;47.812;9.274;2022-10-31T08:28:44;20.17;;;15.98;;
19754;SDS011;10036;47.812;9.274;2022-10-31T08:31:11;20.98;;;15.25;;
19754;SDS011;10036;47.812;9.274;2022-10-31T08:33:38;17.10;;;15.13;;
19754;SDS011;10036;47.812;9.274;2022-10-31T08:36:05;19.08;;;15.18;;
19754;SDS011;10036;47.812;9.274;2022-10-31T08:38:33;19.45;;;15.52;;
19754;SDS011;10036;47.812;9.274;2022-10-31T08:41:00;20.73;;;15.75;;
19754;SDS011;10036;47.812;9.274;2022-10-31T08:43:27;19.70;;;15.90;;
19754;SDS011;10036;47.812;9.274;2022-10-31T08:45:54;22.85;;;17.10;;
19754;SDS011;10036;47.812;9.274;2022-10-31T08:48:20;20.00;;;15.93;;
19754;SDS011;10036;47.812;9.274;2022-10-31T08:50:47;18.30;;;15.15;;
19754;SDS011;10036;47.812;9.274;2022-10-31T08:53:17;24.00;;;16.65;;
19754;SDS011;10036;47.812;9.274;2022-10-31T08:55:46;22.90;;;16.35;;
19754;SDS011;10036;47.812;9.274;2022-10-31T08:58:14;21.65;;;15.88;;
19754;SDS011;10036;47.812;9.274;2022-10-31T09:00:42;24.90;;;17.73;;
19754;SDS011;10036;47.812;9.274;2022-10-31T09:03:11;20.65;;;17.10;;
19754;SDS011;10036;47.812;9.274;2022-10-31T09:05:39;21.63;;;17.00;;
19754;SDS011;10036;47.812;9.274;2022-10-31T09:08:06;45.58;;;18.92;;
19754;SDS011;10036;47.812;9.274;2022-10-31T09:10:34;22.52;;;17.17;;
19754;SDS011;10036;47.812;9.274;2022-10-31T09:13:04;44.05;;;17.77;;
19754;SDS011;10036;47.812;9.274;2022-10-31T09:15:32;20.25;;;16.92;;
19754;SDS011;10036;47.812;9.274;2022-10-31T09:18:00;19.85;;;16.10;;
19754;SDS011;10036;47.812;9.274;2022-10-31T09:20:27;23.63;;;17.73;;
19754;SDS011;10036;47.812;9.274;2022-10-31T09:22:56;25.67;;;18.35;;
19754;SDS011;10036;47.812;9.274;2022-10-31T09:25:24;24.67;;;18.20;;
19754;SDS011;10036;47.812;9.274;2022-10-31T09:27:55;28.35;;;19.75;;
19754;SDS011;10036;47.812;9.274;2022-10-31T09:30:23;82.00;;;19.20;;
19754;SDS011;10036;47.812;9.274;2022-10-31T09:32:54;21.90;;;17.63;;
19754;SDS011;10036;47.812;9.274;2022-10-31T09:35:21;27.42;;;17.85;;
19754;SDS011;10036;47.812;9.274;2022-10-31T09:37:53;55.83;;;19.80;;
19754;SDS011;10036;47.812;9.274;2022-10-31T09:40:20;43.60;;;18.90;;
19754;SDS011;10036;47.812;9.274;2022-10-31T09:42:50;28.33;;;18.83;;
19754;SDS011;10036;47.812;9.274;2022-10-31T09:45:28;28.02;;;19.00;;
19754;SDS011;10036;47.812;9.274;2022-10-31T09:48:15;23.52;;;18.05;;
19754;SDS011;10036;47.812;9.274;2022-10-31T09:51:00;27.52;;;18.13;;
19754;SDS011;10036;47.812;9.274;2022-10-31T09:53:32;26.63;;;19.45;;
19754;SDS011;10036;47.812;9.274;2022-10-31T09:56:04;21.25;;;17.05;;
19754;SDS011;10036;47.812;9.274;2022-10-31T09:58:34;20.95;;;17.65;;
19754;SDS011;10036;47.812;9.274;2022-10-31T10:01:12;24.00;;;17.40;;
19754;SDS011;10036;47.812;9.274;2022-10-31T10:03:49;24.42;;;16.75;;
19754;SDS011;10036;47.812;9.274;2022-10-31T10:06:21;26.45;;;18.13;;
19754;SDS011;10036;47.812;9.274;2022-10-31T10:08:50;20.40;;;17.05;;
19754;SDS011;10036;47.812;9.274;2022-10-31T10:11:21;23.92;;;17.52;;
19754;SDS011;10036;47.812;9.274;2022-10-31T10:14:04;20.95;;;16.40;;
19754;SDS011;10036;47.812;9.274;2022-10-31T10:16:42;20.40;;;15.85;;
19754;SDS011;10036;47.812;9.274;2022-10-31T10:19:35;24.90;;;16.63;;
19754;SDS011;10036;47.812;9.274;2022-10-31T10:22:16;19.73;;;17.05;;
19754;SDS011;10036;47.812;9.274;2022-10-31T10:25:01;24.48;;;16.65;;
19754;SDS011;10036;47.812;9.274;2022-10-31T10:27:41;38.97;;;17.65;;
19754;SDS011;10036;47.812;9.274;2022-10-31T10:30:15;30.08;;;17.60;;
19754;SDS011;10036;47.812;9.274;2022-10-31T10:32:46;47.67;;;18.15;;
19754;SDS011;10036;47.812;9.274;2022-10-31T10:35:20;25.40;;;18.92;;
19754;SDS011;10036;47.812;9.274;2022-10-31T10:37:51;23.27;;;18.00;;
19754;SDS011;10036;47.812;9.274;2022-10-31T10:40:22;26.92;;;17.48;;
19754;SDS011;10036;47.812;9.274;2022-10-31T10:42:53;21.25;;;17.33;;
19754;SDS011;10036;47.812;9.274;2022-10-31T10:45:46;20.35;;;16.38;;
19754;SDS011;10036;47.812;9.274;2022-10-31T10:48:52;22.63;;;16.30;;
19754;SDS011;10036;47.812;9.274;2022-10-31T10:51:23;20.55;;;16.67;;
19754;SDS011;10036;47.812;9.274;2022-10-31T10:54:03;22.88;;;17.95;;
19754;SDS011;10036;47.812;9.274;2022-10-31T10:56:48;21.65;;;17.63;;
19754;SDS011;10036;47.812;9.274;2022-10-31T10:59:22;21.50;;;17.35;;
19754;SDS011;10036;47.812;9.274;2022-10-31T11:01:50;22.95;;;17.55;;
19754;SDS011;10036;47.812;9.274;2022-10-31T11:04:23;22.58;;;16.92;;
19754;SDS011;10036;47.812;9.274;2022-10-31T11:06:57;23.50;;;17.27;;
19754;SDS011;10036;47.812;9.274;2022-10-31T11:09:28;26.13;;;18.38;;
19754;SDS011;10036;47.812;9.274;2022-10-31T11:11:55;21.42;;;18.48;;
19754;SDS011;10036;47.812;9.274;2022-10-31T11:14:24;22.65;;;17.73;;
19754;SDS011;10036;47.812;9.274;2022-10-31T11:16:55;27.00;;;19.27;;
19754;SDS011;10036;47.812;9.274;2022-10-31T11:19:37;30.70;;;18.70;;
19754;SDS011;10036;47.812;9.274;2022-10-31T11:22:07;26.60;;;19.55;;
19754;SDS011;10036;47.812;9.274;2022-10-31T11:24:42;24.80;;;19.02;;
19754;SDS011;10036;47.812;9.274;2022-10-31T11:27:13;25.15;;;19.38;;
19754;SDS011;10036;47.812;9.274;2022-10-31T11:29:41;23.52;;;18.73;;
19754;SDS011;10036;47.812;9.274;2022-10-31T11:32:16;25.02;;;18.27;;
19754;SDS011;10036;47.812;9.274;2022-10-31T11:34:47;25.55;;;18.65;;
19754;SDS011;10036;47.812;9.274;2022-10-31T11:37:18;23.08;;;18.20;;
19754;SDS011;10036;47.812;9.274;2022-10-31T11:39:48;25.83;;;19.75;;
19754;SDS011;10036;47.812;9.274;2022-10-31T11:42:19;26.75;;;20.92;;
19754;SDS011;10036;47.812;9.274;2022-10-31T11:44:47;28.52;;;21.52;;
19754;SDS011;10036;47.812;9.274;2022-10-31T11:47:16;24.73;;;20.05;;
19754;SDS011;10036;47.812;9.274;2022-10-31T11:49:45;30.42;;;21.65;;
19754;SDS011;10036;47.812;9.274;2022-10-31T11:52:15;26.50;;;19.73;;
19754;SDS011;10036;47.812;9.274;2022-10-31T11:54:46;26.55;;;19.35;;
19754;SDS011;10036;47.812;9.274;2022-10-31T11:57:22;22.35;;;17.70;;
19754;SDS011;10036;47.812;9.274;2022-10-31T11:59:51;24.95;;;19.58;;
19754;SDS011;10036;47.812;9.274;2022-10-31T12:02:19;26.95;;;18.80;;
19754;SDS011;10036;47.812;9.274;2022-10-31T12:04:48;25.15;;;19.25;;
19754;SDS011;10036;47.812;9.274;2022-10-31T12:07:22;23.08;;;19.35;;
19754;SDS011;10036;47.812;9.274;2022-10-31T12:09:49;26.42;;;19.65;;
19754;SDS011;10036;47.812;9.274;2022-10-31T12:12:26;25.13;;;18.75;;
19754;SDS011;10036;47.812;9.274;2022-10-31T12:15:07;26.00;;;20.15;;
19754;SDS011;10036;47.812;9.274;2022-10-31T12:17:54;23.15;;;19.20;;
19754;SDS011;10036;47.812;9.274;2022-10-31T12:20:41;26.50;;;18.58;;
19754;SDS011;10036;47.812;9.274;2022-10-31T12:23:19;20.08;;;16.65;;
19754;SDS011;10036;47.812;9.274;2022-10-31T12:26:05;24.60;;;19.30;;
19754;SDS011;10036;47.812;9.274;2022-10-31T12:28:42;25.30;;;18.45;;
19754;SDS011;10036;47.812;9.274;2022-10-31T12:31:35;26.10;;;19.88;;
19754;SDS011;10036;47.812;9.274;2022-10-31T12:34:19;25.17;;;19.50;;
19754;SDS011;10036;47.812;9.274;2022-10-31T12:37:00;24.80;;;19.05;;
19754;SDS011;10036;47.812;9.274;2022-10-31T12:39:36;29.15;;;20.25;;
19754;SDS011;10036;47.812;9.274;2022-10-31T12:42:13;21.60;;;17.65;;
19754;SDS011;10036;47.812;9.274;2022-10-31T12:45:00;27.05;;;19.83;;
19754;SDS011;10036;47.812;9.274;2022-10-31T12:50:34;24.23;;;18.88;;
19754;SDS011;10036;47.812;9.274;2022-10-31T12:53:18;24.92;;;19.15;;
19754;SDS011;10036;47.812;9.274;2022-10-31T12:55:55;23.95;;;19.85;;
19754;SDS011;10036;47.812;9.274;2022-10-31T12:58:29;25.05;;;19.48;;
19754;SDS011;10036;47.812;9.274;2022-10-31T13:01:02;27.15;;;21.17;;
19754;SDS011;10036;47.812;9.274;2022-10-31T13:03:35;27.25;;;19.05;;
19754;SDS011;10036;47.812;9.274;2022-10-31T13:06:13;24.85;;;19.30;;
19754;SDS011;10036;47.812;9.274;2022-10-31T13:08:49;24.40;;;19.83;;
19754;SDS011;10036;47.812;9.274;2022-10-31T13:11:21;29.20;;;21.17;;
19754;SDS011;10036;47.812;9.274;2022-10-31T13:13:53;24.08;;;20.40;;
19754;SDS011;10036;47.812;9.274;2022-10-31T13:16:28;25.50;;;20.95;;
19754;SDS011;10036;47.812;9.274;2022-10-31T13:19:00;24.33;;;19.38;;
19754;SDS011;10036;47.812;9.274;2022-10-31T13:21:34;27.33;;;19.67;;
19754;SDS011;10036;47.812;9.274;2022-10-31T13:24:07;25.58;;;19.85;;
19754;SDS011;10036;47.812;9.274;2022-10-31T13:26:42;26.55;;;19.67;;
19754;SDS011;10036;47.812;9.274;2022-10-31T13:29:14;21.02;;;16.92;;
19754;SDS011;10036;47.812;9.274;2022-10-31T13:31:44;24.38;;;18.90;;
19754;SDS011;10036;47.812;9.274;2022-10-31T13:34:16;24.60;;;19.02;;
19754;SDS011;10036;47.812;9.274;2022-10-31T13:36:50;26.23;;;18.75;;
19754;SDS011;10036;47.812;9.274;2022-10-31T13:39:29;27.98;;;18.88;;
19754;SDS011;10036;47.812;9.274;2022-10-31T13:42:08;26.20;;;18.73;;
19754;SDS011;10036;47.812;9.274;2022-10-31T13:44:41;24.10;;;18.30;;
19754;SDS011;10036;47.812;9.274;2022-10-31T13:47:24;22.33;;;16.58;;
19754;SDS011;10036;47.812;9.274;2022-10-31T13:50:02;28.67;;;19.38;;
19754;SDS011;10036;47.812;9.274;2022-10-31T13:52:31;27.58;;;20.15;;
19754;SDS011;10036;47.812;9.274;2022-10-31T13:54:59;26.38;;;20.55;;
19754;SDS011;10036;47.812;9.274;2022-10-31T13:57:30;27.42;;;20.77;;
19754;SDS011;10036;47.812;9.274;2022-10-31T13:59:59;25.50;;;20.77;;
19754;SDS011;10036;47.812;9.274;2022-10-31T14:02:30;27.70;;;21.40;;
19754;SDS011;10036;47.812;9.274;2022-10-31T14:05:00;23.55;;;20.05;;
19754;SDS011;10036;47.812;9.274;2022-10-31T14:07:29;27.63;;;19.88;;
19754;SDS011;10036;47.812;9.274;2022-10-31T14:10:01;24.83;;;20.40;;
19754;SDS011;10036;47.812;9.274;2022-10-31T14:12:31;24.95;;;19.88;;
19754;SDS011;10036;47.812;9.274;2022-10-31T14:15:03;26.55;;;20.08;;
19754;SDS011;10036;47.812;9.274;2022-10-31T14:17:44;25.10;;;19.42;;
19754;SDS011;10036;47.812;9.274;2022-10-31T14:26:20;27.30;;;19.90;;
19754;SDS011;10036;47.812;9.274;2022-10-31T14:28:57;26.05;;;19.85;;
19754;SDS011;10036;47.812;9.274;2022-10-31T14:31:30;29.85;;;21.30;;
19754;SDS011;10036;47.812;9.274;2022-10-31T14:34:01;26.75;;;20.77;;
19754;SDS011;10036;47.812;9.274;2022-10-31T14:36:46;25.45;;;20.58;;
19754;SDS011;10036;47.812;9.274;2022-10-31T14:39:24;26.70;;;21.20;;
19754;SDS011;10036;47.812;9.274;2022-10-31T14:42:00;29.17;;;21.08;;
19754;SDS011;10036;47.812;9.274;2022-10-31T14:44:50;60.53;;;44.47;;
19754;SDS011;10036;47.812;9.274;2022-10-31T14:47:36;32.65;;;26.80;;
19754;SDS011;10036;47.812;9.274;2022-10-31T14:50:24;28.73;;;22.58;;
19754;SDS011;10036;47.812;9.274;2022-10-31T14:53:04;27.88;;;22.98;;
19754;SDS011;10036;47.812;9.274;2022-10-31T14:55:32;30.55;;;20.85;;